LFAC

Calais-Dunkerque Airport

Airport
ICAO code
LFAC
IATA Code
CQF
Summary
ICAO Region
EUR
ICAO Territory
Location

, Nord-Pas-de-Calais

Serving
Calais
Elevation
12 ft
Coordinates
50° 57' 44" N , 1° 57' 17" E
Metar
Observation
LFAC 021300Z AUTO 06019KT 9999 SCT024 SCT035 07/03 Q1022
Station
CALAIS/DUNKERQUE
Date/Time
2022-12-02 13:00:00
Wind direction
60°
Wind speed
19 kts
Lowest cloud amount
scattered clouds
Temperature
7°C
Dew point
3°C
Humidity
75%
QNH
1022 hPa
Weather condition
n/a

Runways

Designator Length Width Surface Rops
6/24 1535 45 ASP Yes/Yes

Airport map

Aerial View

SKYbrary Partners:

Safety knowledge contributed by: